sensor_id;sensor_type;location;lat;lon;timestamp;pressure;altitude;pressure_sealevel;temperature;humidity
45285;BME280;31026;43.780;25.948;2024-02-15T00:02:19;101455.03;;;18.84;61.71
45285;BME280;31026;43.780;25.948;2024-02-15T00:04:48;101452.97;;;18.64;62.06
45285;BME280;31026;43.780;25.948;2024-02-15T00:07:16;101460.34;;;18.49;62.38
45285;BME280;31026;43.780;25.948;2024-02-15T00:09:47;101451.56;;;18.47;62.32
45285;BME280;31026;43.780;25.948;2024-02-15T00:12:15;101457.94;;;18.57;62.25
45285;BME280;31026;43.780;25.948;2024-02-15T00:14:44;101454.31;;;18.82;61.70
45285;BME280;31026;43.780;25.948;2024-02-15T00:17:12;101456.09;;;18.82;61.64
45285;BME280;31026;43.780;25.948;2024-02-15T00:19:43;101446.03;;;18.61;62.21
45285;BME280;31026;43.780;25.948;2024-02-15T00:22:12;101463.97;;;18.48;62.42
45285;BME280;31026;43.780;25.948;2024-02-15T00:24:40;101468.50;;;18.47;62.31
45285;BME280;31026;43.780;25.948;2024-02-15T00:27:10;101455.91;;;18.61;62.21
45285;BME280;31026;43.780;25.948;2024-02-15T00:29:39;101457.56;;;18.86;61.79
45285;BME280;31026;43.780;25.948;2024-02-15T00:32:08;101454.44;;;19.03;61.06
45285;BME280;31026;43.780;25.948;2024-02-15T00:34:36;101444.97;;;19.11;60.84
45285;BME280;31026;43.780;25.948;2024-02-15T00:37:07;101469.56;;;19.16;60.86
45285;BME280;31026;43.780;25.948;2024-02-15T00:39:36;101456.16;;;19.16;60.79
45285;BME280;31026;43.780;25.948;2024-02-15T00:42:04;101458.88;;;19.27;60.62
45285;BME280;31026;43.780;25.948;2024-02-15T00:44:34;101460.56;;;19.17;60.78
45285;BME280;31026;43.780;25.948;2024-02-15T00:47:02;101455.25;;;18.81;61.47
45285;BME280;31026;43.780;25.948;2024-02-15T00:49:30;101445.06;;;18.62;61.98
45285;BME280;31026;43.780;25.948;2024-02-15T00:52:00;101453.28;;;18.48;62.29
45285;BME280;31026;43.780;25.948;2024-02-15T00:54:31;101461.81;;;18.53;62.34
45285;BME280;31026;43.780;25.948;2024-02-15T00:56:59;101449.09;;;18.68;61.94
45285;BME280;31026;43.780;25.948;2024-02-15T00:59:27;101451.63;;;18.82;61.57
45285;BME280;31026;43.780;25.948;2024-02-15T01:01:56;101459.69;;;18.69;62.18
45285;BME280;31026;43.780;25.948;2024-02-15T01:04:25;101466.09;;;18.56;62.07
45285;BME280;31026;43.780;25.948;2024-02-15T01:06:53;101450.31;;;18.40;62.61
45285;BME280;31026;43.780;25.948;2024-02-15T01:09:21;101453.28;;;18.48;62.34
45285;BME280;31026;43.780;25.948;2024-02-15T01:11:52;101458.00;;;18.68;62.08
45285;BME280;31026;43.780;25.948;2024-02-15T01:14:21;101456.78;;;18.73;61.92
45285;BME280;31026;43.780;25.948;2024-02-15T01:16:49;101450.44;;;18.62;62.27
45285;BME280;31026;43.780;25.948;2024-02-15T01:19:17;101451.56;;;18.47;62.41
45285;BME280;31026;43.780;25.948;2024-02-15T01:21:46;101449.00;;;18.45;62.60
45285;BME280;31026;43.780;25.948;2024-02-15T01:24:14;101453.84;;;18.64;62.07
45285;BME280;31026;43.780;25.948;2024-02-15T01:26:42;101436.13;;;18.86;61.70
45285;BME280;31026;43.780;25.948;2024-02-15T01:29:15;101454.59;;;18.66;61.99
45285;BME280;31026;43.780;25.948;2024-02-15T01:31:44;101456.47;;;18.53;62.36
45285;BME280;31026;43.780;25.948;2024-02-15T01:34:12;101474.31;;;18.41;62.57
45285;BME280;31026;43.780;25.948;2024-02-15T01:36:40;101466.56;;;18.49;62.30
45285;BME280;31026;43.780;25.948;2024-02-15T01:39:09;101465.16;;;18.68;62.19
45285;BME280;31026;43.780;25.948;2024-02-15T01:41:38;101461.59;;;18.92;61.48
45285;BME280;31026;43.780;25.948;2024-02-15T01:44:06;101467.22;;;19.00;61.19
45285;BME280;31026;43.780;25.948;2024-02-15T01:46:38;101469.94;;;19.11;61.13
45285;BME280;31026;43.780;25.948;2024-02-15T01:49:08;101470.56;;;19.15;61.01
45285;BME280;31026;43.780;25.948;2024-02-15T01:51:37;101470.09;;;19.21;60.74
45285;BME280;31026;43.780;25.948;2024-02-15T01:54:06;101470.94;;;19.21;60.56
45285;BME280;31026;43.780;25.948;2024-02-15T01:56:34;101473.63;;;19.21;60.69
45285;BME280;31026;43.780;25.948;2024-02-15T01:59:03;101475.44;;;19.21;60.71
45285;BME280;31026;43.780;25.948;2024-02-15T02:01:32;101481.31;;;19.26;60.57
45285;BME280;31026;43.780;25.948;2024-02-15T02:04:04;101473.63;;;19.33;60.30
45285;BME280;31026;43.780;25.948;2024-02-15T02:06:33;101473.63;;;19.33;60.52
45285;BME280;31026;43.780;25.948;2024-02-15T02:09:01;101470.13;;;19.32;60.37
45285;BME280;31026;43.780;25.948;2024-02-15T02:11:29;101481.56;;;19.34;60.43
45285;BME280;31026;43.780;25.948;2024-02-15T02:13:58;101483.13;;;19.14;60.80
45285;BME280;31026;43.780;25.948;2024-02-15T02:16:27;101474.16;;;18.91;61.39
45285;BME280;31026;43.780;25.948;2024-02-15T02:18:57;101472.13;;;18.71;61.81
45285;BME280;31026;43.780;25.948;2024-02-15T02:21:28;101476.81;;;18.56;62.18
45285;BME280;31026;43.780;25.948;2024-02-15T02:23:57;101482.78;;;18.59;62.04
45285;BME280;31026;43.780;25.948;2024-02-15T02:26:28;101482.59;;;18.74;61.76
45285;BME280;31026;43.780;25.948;2024-02-15T02:28:58;101486.88;;;19.00;61.29
45285;BME280;31026;43.780;25.948;2024-02-15T02:31:32;101484.09;;;19.13;61.13
45285;BME280;31026;43.780;25.948;2024-02-15T02:34:00;101483.97;;;19.15;60.92
45285;BME280;31026;43.780;25.948;2024-02-15T02:36:29;101489.09;;;19.18;60.69
45285;BME280;31026;43.780;25.948;2024-02-15T02:38:57;101488.75;;;19.22;60.46
45285;BME280;31026;43.780;25.948;2024-02-15T02:41:29;101488.88;;;19.32;60.46
45285;BME280;31026;43.780;25.948;2024-02-15T02:43:57;101483.53;;;19.32;60.22
45285;BME280;31026;43.780;25.948;2024-02-15T02:46:26;101485.22;;;19.33;60.24
45285;BME280;31026;43.780;25.948;2024-02-15T02:48:54;101475.16;;;19.01;61.05
45285;BME280;31026;43.780;25.948;2024-02-15T02:51:22;101489.97;;;18.83;61.74
45285;BME280;31026;43.780;25.948;2024-02-15T02:53:51;101491.22;;;18.66;61.96
45285;BME280;31026;43.780;25.948;2024-02-15T02:56:19;101492.25;;;18.52;62.19
45285;BME280;31026;43.780;25.948;2024-02-15T02:58:50;101492.94;;;18.67;61.90
45285;BME280;31026;43.780;25.948;2024-02-15T03:01:18;101474.41;;;18.88;61.62
45285;BME280;31026;43.780;25.948;2024-02-15T03:03:46;101481.50;;;19.12;60.90
45285;BME280;31026;43.780;25.948;2024-02-15T03:06:15;101481.91;;;19.18;60.79
45285;BME280;31026;43.780;25.948;2024-02-15T03:08:43;101490.31;;;19.25;60.71
45285;BME280;31026;43.780;25.948;2024-02-15T03:11:12;101470.59;;;19.26;60.51
45285;BME280;31026;43.780;25.948;2024-02-15T03:13:41;101473.88;;;19.30;60.33
45285;BME280;31026;43.780;25.948;2024-02-15T03:16:12;101475.69;;;19.29;60.45
45285;BME280;31026;43.780;25.948;2024-02-15T03:18:41;101481.06;;;19.29;60.49
45285;BME280;31026;43.780;25.948;2024-02-15T03:21:10;101473.13;;;19.27;60.50
45285;BME280;31026;43.780;25.948;2024-02-15T03:23:38;101478.16;;;19.32;60.27
45285;BME280;31026;43.780;25.948;2024-02-15T03:26:07;101479.34;;;19.39;60.32
45285;BME280;31026;43.780;25.948;2024-02-15T03:28:37;101473.03;;;19.40;60.11
45285;BME280;31026;43.780;25.948;2024-02-15T03:31:05;101465.94;;;19.39;60.23
45285;BME280;31026;43.780;25.948;2024-02-15T03:33:37;101480.97;;;19.42;60.06
45285;BME280;31026;43.780;25.948;2024-02-15T03:36:05;101490.81;;;19.41;59.92
45285;BME280;31026;43.780;25.948;2024-02-15T03:38:35;101458.41;;;19.22;60.12
45285;BME280;31026;43.780;25.948;2024-02-15T03:41:04;101475.47;;;19.43;60.15
45285;BME280;31026;43.780;25.948;2024-02-15T03:43:32;101477.41;;;19.41;60.06
45285;BME280;31026;43.780;25.948;2024-02-15T03:46:00;101498.53;;;19.46;59.95
45285;BME280;31026;43.780;25.948;2024-02-15T03:48:28;101488.03;;;19.43;60.09
45285;BME280;31026;43.780;25.948;2024-02-15T03:51:00;101484.72;;;19.39;59.98
45285;BME280;31026;43.780;25.948;2024-02-15T03:53:29;101488.88;;;19.43;60.00
45285;BME280;31026;43.780;25.948;2024-02-15T03:55:58;101518.25;;;19.45;60.01
45285;BME280;31026;43.780;25.948;2024-02-15T03:58:27;101495.22;;;19.42;60.23
45285;BME280;31026;43.780;25.948;2024-02-15T04:00:58;101500.59;;;19.42;60.05
45285;BME280;31026;43.780;25.948;2024-02-15T04:03:27;101502.28;;;19.43;60.12
45285;BME280;31026;43.780;25.948;2024-02-15T04:06:00;101499.59;;;19.43;59.98
45285;BME280;31026;43.780;25.948;2024-02-15T04:08:29;101503.38;;;19.41;60.32
45285;BME280;31026;43.780;25.948;2024-02-15T04:10:58;101494.72;;;19.37;60.20
45285;BME280;31026;43.780;25.948;2024-02-15T04:13:27;101501.44;;;19.43;60.04
45285;BME280;31026;43.780;25.948;2024-02-15T04:15:55;101498.75;;;19.43;60.22
45285;BME280;31026;43.780;25.948;2024-02-15T04:18:23;101509.25;;;19.46;60.00
45285;BME280;31026;43.780;25.948;2024-02-15T04:20:52;101502.28;;;19.43;59.96
45285;BME280;31026;43.780;25.948;2024-02-15T04:23:23;101502.28;;;19.43;59.98
45285;BME280;31026;43.780;25.948;2024-02-15T04:25:51;101508.63;;;19.42;60.16
45285;BME280;31026;43.780;25.948;2024-02-15T04:28:19;101513.38;;;19.39;60.02
45285;BME280;31026;43.780;25.948;2024-02-15T04:30:47;101509.59;;;19.41;60.25
45285;BME280;31026;43.780;25.948;2024-02-15T04:33:16;101517.41;;;19.44;59.96
45285;BME280;31026;43.780;25.948;2024-02-15T04:35:44;101510.81;;;19.37;60.20
45285;BME280;31026;43.780;25.948;2024-02-15T04:38:14;101509.84;;;19.38;60.13
45285;BME280;31026;43.780;25.948;2024-02-15T04:40:47;101514.00;;;19.42;60.19
45285;BME280;31026;43.780;25.948;2024-02-15T04:43:15;101508.88;;;19.39;59.87
45285;BME280;31026;43.780;25.948;2024-02-15T04:45:43;101508.13;;;19.37;60.08
45285;BME280;31026;43.780;25.948;2024-02-15T04:48:12;101518.38;;;19.43;60.07
45285;BME280;31026;43.780;25.948;2024-02-15T04:50:42;101511.78;;;19.47;60.03
45285;BME280;31026;43.780;25.948;2024-02-15T04:53:11;101513.00;;;19.43;60.00
45285;BME280;31026;43.780;25.948;2024-02-15T04:55:39;101525.69;;;19.41;60.01
45285;BME280;31026;43.780;25.948;2024-02-15T04:58:10;101506.91;;;19.41;60.23
45285;BME280;31026;43.780;25.948;2024-02-15T05:00:38;101524.72;;;19.42;60.16
45285;BME280;31026;43.780;25.948;2024-02-15T05:03:07;101541.78;;;19.41;59.97
45285;BME280;31026;43.780;25.948;2024-02-15T05:05:35;101531.06;;;19.41;60.17
45285;BME280;31026;43.780;25.948;2024-02-15T05:08:04;101539.84;;;19.43;60.18
45285;BME280;31026;43.780;25.948;2024-02-15T05:10:34;101550.22;;;19.48;60.18
45285;BME280;31026;43.780;25.948;2024-02-15T05:13:02;101535.47;;;19.42;60.19
45285;BME280;31026;43.780;25.948;2024-02-15T05:15:33;101559.34;;;19.34;60.55
45285;BME280;31026;43.780;25.948;2024-02-15T05:18:02;101548.59;;;19.23;59.78
45285;BME280;31026;43.780;25.948;2024-02-15T05:20:33;101545.69;;;19.26;59.82
45285;BME280;31026;43.780;25.948;2024-02-15T05:23:02;101547.00;;;19.20;60.01
45285;BME280;31026;43.780;25.948;2024-02-15T05:25:30;101558.94;;;19.27;59.91
45285;BME280;31026;43.780;25.948;2024-02-15T05:28:00;101554.69;;;19.25;59.66
45285;BME280;31026;43.780;25.948;2024-02-15T05:30:31;101575.66;;;19.31;59.85
45285;BME280;31026;43.780;25.948;2024-02-15T05:33:02;101565.03;;;19.30;59.81
45285;BME280;31026;43.780;25.948;2024-02-15T05:35:35;101573.22;;;19.28;59.82
45285;BME280;31026;43.780;25.948;2024-02-15T05:38:06;101567.97;;;19.26;59.79
45285;BME280;31026;43.780;25.948;2024-02-15T05:40:36;101592.84;;;19.28;59.79
45285;BME280;31026;43.780;25.948;2024-02-15T05:43:05;101576.97;;;19.25;59.61
45285;BME280;31026;43.780;25.948;2024-02-15T05:45:33;101567.13;;;19.26;59.64
45285;BME280;31026;43.780;25.948;2024-02-15T05:48:07;101561.03;;;19.24;59.50
45285;BME280;31026;43.780;25.948;2024-02-15T05:50:37;101579.81;;;19.24;59.73
45285;BME280;31026;43.780;25.948;2024-02-15T05:53:06;101584.19;;;19.25;59.48
45285;BME280;31026;43.780;25.948;2024-02-15T05:55:35;101592.22;;;19.25;59.50
45285;BME280;31026;43.780;25.948;2024-02-15T05:58:05;101591.13;;;19.27;59.46
45285;BME280;31026;43.780;25.948;2024-02-15T06:00:35;101593.81;;;19.27;59.53
45285;BME280;31026;43.780;25.948;2024-02-15T06:03:04;101601.63;;;19.31;59.37
45285;BME280;31026;43.780;25.948;2024-02-15T06:05:37;101601.63;;;19.31;59.38
45285;BME280;31026;43.780;25.948;2024-02-15T06:08:06;101600.78;;;19.30;59.22
45285;BME280;31026;43.780;25.948;2024-02-15T06:10:34;101599.56;;;19.34;59.22
45285;BME280;31026;43.780;25.948;2024-02-15T06:13:03;101607.38;;;19.37;59.22
45285;BME280;31026;43.780;25.948;2024-02-15T06:15:33;101603.72;;;19.38;59.10
45285;BME280;31026;43.780;25.948;2024-02-15T06:18:02;101600.31;;;19.36;59.04
45285;BME280;31026;43.780;25.948;2024-02-15T06:20:37;101604.34;;;19.42;59.24
45285;BME280;31026;43.780;25.948;2024-02-15T06:23:06;101597.75;;;19.35;59.13
45285;BME280;31026;43.780;25.948;2024-02-15T06:25:35;101612.97;;;19.34;59.14
45285;BME280;31026;43.780;25.948;2024-02-15T06:28:03;101605.69;;;19.36;59.11
45285;BME280;31026;43.780;25.948;2024-02-15T06:30:38;101607.38;;;19.37;59.14
45285;BME280;31026;43.780;25.948;2024-02-15T06:33:19;101607.25;;;19.39;59.08
45285;BME280;31026;43.780;25.948;2024-02-15T06:36:06;101618.50;;;19.44;58.90
45285;BME280;31026;43.780;25.948;2024-02-15T06:38:47;101622.78;;;19.46;59.28
45285;BME280;31026;43.780;25.948;2024-02-15T06:41:27;101624.09;;;19.41;59.09
45285;BME280;31026;43.780;25.948;2024-02-15T06:43:56;101616.66;;;19.44;58.85
45285;BME280;31026;43.780;25.948;2024-02-15T06:46:24;101641.19;;;19.51;59.02
45285;BME280;31026;43.780;25.948;2024-02-15T06:48:52;101626.91;;;19.51;58.86
45285;BME280;31026;43.780;25.948;2024-02-15T06:51:25;101611.34;;;19.56;58.92
45285;BME280;31026;43.780;25.948;2024-02-15T06:53:54;101614.03;;;19.56;58.76
45285;BME280;31026;43.780;25.948;2024-02-15T06:56:23;101611.81;;;19.61;58.92
45285;BME280;31026;43.780;25.948;2024-02-15T06:58:51;101624.53;;;19.70;58.42
45285;BME280;31026;43.780;25.948;2024-02-15T07:01:20;101611.88;;;19.72;58.38
45285;BME280;31026;43.780;25.948;2024-02-15T07:03:49;101624.53;;;19.70;58.75
45285;BME280;31026;43.780;25.948;2024-02-15T07:06:17;101617.63;;;19.43;59.11
45285;BME280;31026;43.780;25.948;2024-02-15T07:08:49;101618.94;;;19.26;59.61
45285;BME280;31026;43.780;25.948;2024-02-15T07:11:19;101614.81;;;19.10;59.71
45285;BME280;31026;43.780;25.948;2024-02-15T07:13:47;101604.19;;;18.97;60.28
45285;BME280;31026;43.780;25.948;2024-02-15T07:16:18;101605.09;;;18.84;60.73
45285;BME280;31026;43.780;25.948;2024-02-15T07:18:46;101617.31;;;18.76;60.87
45285;BME280;31026;43.780;25.948;2024-02-15T07:21:15;101614.41;;;18.79;60.99
45285;BME280;31026;43.780;25.948;2024-02-15T07:23:49;101613.38;;;18.68;61.11
45285;BME280;31026;43.780;25.948;2024-02-15T07:26:17;101625.75;;;18.58;61.27
45285;BME280;31026;43.780;25.948;2024-02-15T07:28:45;101597.97;;;18.59;61.41
45285;BME280;31026;43.780;25.948;2024-02-15T07:31:15;101606.00;;;18.59;61.28
45285;BME280;31026;43.780;25.948;2024-02-15T07:33:43;101609.44;;;18.61;61.31
45285;BME280;31026;43.780;25.948;2024-02-15T07:36:12;101602.59;;;18.57;61.50
45285;BME280;31026;43.780;25.948;2024-02-15T07:38:40;101607.75;;;18.60;61.47
45285;BME280;31026;43.780;25.948;2024-02-15T07:41:13;101608.59;;;18.61;61.32
45285;BME280;31026;43.780;25.948;2024-02-15T07:43:43;101613.75;;;18.51;61.72
45285;BME280;31026;43.780;25.948;2024-02-15T07:46:12;101606.66;;;18.50;61.85
45285;BME280;31026;43.780;25.948;2024-02-15T07:48:41;101601.31;;;18.50;61.71
45285;BME280;31026;43.780;25.948;2024-02-15T07:51:12;101596.19;;;18.47;61.68
45285;BME280;31026;43.780;25.948;2024-02-15T07:53:40;101603.88;;;18.52;61.64
45285;BME280;31026;43.780;25.948;2024-02-15T07:56:09;101600.72;;;18.46;61.96
45285;BME280;31026;43.780;25.948;2024-02-15T07:58:41;101589.13;;;18.46;61.68
45285;BME280;31026;43.780;25.948;2024-02-15T08:01:11;101604.75;;;18.52;61.75
45285;BME280;31026;43.780;25.948;2024-02-15T08:03:41;101604.41;;;18.57;61.52
45285;BME280;31026;43.780;25.948;2024-02-15T08:06:10;101590.50;;;18.52;61.58
45285;BME280;31026;43.780;25.948;2024-02-15T08:08:40;101597.69;;;18.51;61.62
45285;BME280;31026;43.780;25.948;2024-02-15T08:11:11;101602.81;;;18.54;61.41
45285;BME280;31026;43.780;25.948;2024-02-15T08:13:43;101597.16;;;18.46;61.63
45285;BME280;31026;43.780;25.948;2024-02-15T08:16:15;101599.84;;;18.46;61.96
45285;BME280;31026;43.780;25.948;2024-02-15T08:18:43;101592.34;;;18.51;61.64
45285;BME280;31026;43.780;25.948;2024-02-15T08:21:11;101601.56;;;18.47;61.51
45285;BME280;31026;43.780;25.948;2024-02-15T08:23:40;101592.34;;;18.51;61.75
45285;BME280;31026;43.780;25.948;2024-02-15T08:26:09;101598.13;;;18.45;61.66
45285;BME280;31026;43.780;25.948;2024-02-15T08:28:37;101588.50;;;18.42;61.66
45285;BME280;31026;43.780;25.948;2024-02-15T08:31:09;101589.56;;;18.40;61.86
45285;BME280;31026;43.780;25.948;2024-02-15T08:33:40;101586.88;;;18.40;61.74
45285;BME280;31026;43.780;25.948;2024-02-15T08:36:10;101587.13;;;18.37;61.30
45285;BME280;31026;43.780;25.948;2024-02-15T08:38:39;101589.28;;;18.32;60.61
45285;BME280;31026;43.780;25.948;2024-02-15T08:41:07;101597.09;;;18.35;60.38
45285;BME280;31026;43.780;25.948;2024-02-15T08:43:36;101581.03;;;18.35;60.72
45285;BME280;31026;43.780;25.948;2024-02-15T08:46:09;101576.41;;;18.37;60.62
45285;BME280;31026;43.780;25.948;2024-02-15T08:48:38;101588.31;;;18.33;59.11
45285;BME280;31026;43.780;25.948;2024-02-15T08:51:06;101586.38;;;18.35;59.59
45285;BME280;31026;43.780;25.948;2024-02-15T08:53:35;101597.09;;;18.35;59.56
45285;BME280;31026;43.780;25.948;2024-02-15T08:56:04;101589.28;;;18.32;58.67
45285;BME280;31026;43.780;25.948;2024-02-15T08:58:34;101627.50;;;18.34;58.67
45285;BME280;31026;43.780;25.948;2024-02-15T09:01:04;101596.13;;;18.36;58.24
45285;BME280;31026;43.780;25.948;2024-02-15T09:03:35;101572.47;;;18.29;57.69
45285;BME280;31026;43.780;25.948;2024-02-15T09:06:04;101578.66;;;18.30;57.64
45285;BME280;31026;43.780;25.948;2024-02-15T09:08:32;101582.09;;;18.32;57.43
45285;BME280;31026;43.780;25.948;2024-02-15T09:11:01;101574.38;;;18.40;57.22
45285;BME280;31026;43.780;25.948;2024-02-15T09:13:29;101569.88;;;18.41;56.69
45285;BME280;31026;43.780;25.948;2024-02-15T09:15:58;101571.38;;;18.32;56.81
45285;BME280;31026;43.780;25.948;2024-02-15T09:18:28;101583.81;;;18.20;56.12
45285;BME280;31026;43.780;25.948;2024-02-15T09:21:01;101584.16;;;18.16;55.93
45285;BME280;31026;43.780;25.948;2024-02-15T09:23:30;101561.06;;;18.15;56.29
45285;BME280;31026;43.780;25.948;2024-02-15T09:25:58;101559.66;;;18.70;54.46
45285;BME280;31026;43.780;25.948;2024-02-15T09:28:27;101566.50;;;19.22;53.76
45285;BME280;31026;43.780;25.948;2024-02-15T09:30:56;101562.94;;;19.11;53.58
45285;BME280;31026;43.780;25.948;2024-02-15T09:33:24;101551.38;;;18.86;53.85
45285;BME280;31026;43.780;25.948;2024-02-15T09:35:54;101567.22;;;18.65;54.75
45285;BME280;31026;43.780;25.948;2024-02-15T09:38:25;101556.78;;;18.97;54.11
45285;BME280;31026;43.780;25.948;2024-02-15T09:40:54;101564.56;;;19.36;53.55
45285;BME280;31026;43.780;25.948;2024-02-15T09:43:24;101531.66;;;19.34;53.80
45285;BME280;31026;43.780;25.948;2024-02-15T09:45:55;101569.97;;;19.12;54.19
45285;BME280;31026;43.780;25.948;2024-02-15T09:48:23;101549.47;;;18.88;55.29
45285;BME280;31026;43.780;25.948;2024-02-15T09:50:53;101541.44;;;18.75;56.09
45285;BME280;31026;43.780;25.948;2024-02-15T09:53:25;101538.69;;;19.12;55.35
45285;BME280;31026;43.780;25.948;2024-02-15T09:55:54;101549.59;;;19.44;54.99
45285;BME280;31026;43.780;25.948;2024-02-15T09:58:29;101555.34;;;19.40;55.07
45285;BME280;31026;43.780;25.948;2024-02-15T10:00:59;101550.25;;;19.13;55.90
45285;BME280;31026;43.780;25.948;2024-02-15T10:03:29;101523.41;;;18.90;56.50
45285;BME280;31026;43.780;25.948;2024-02-15T10:05:58;101548.56;;;18.87;57.00
45285;BME280;31026;43.780;25.948;2024-02-15T10:08:29;101545.19;;;19.32;56.08
45285;BME280;31026;43.780;25.948;2024-02-15T10:11:06;101543.91;;;19.60;55.33
45285;BME280;31026;43.780;25.948;2024-02-15T10:13:36;101545.94;;;19.34;56.09
45285;BME280;31026;43.780;25.948;2024-02-15T10:16:14;101545.53;;;19.16;56.56
45285;BME280;31026;43.780;25.948;2024-02-15T10:18:43;101550.19;;;18.90;57.45
45285;BME280;31026;43.780;25.948;2024-02-15T10:21:23;101531.28;;;18.80;57.49
45285;BME280;31026;43.780;25.948;2024-02-15T10:24:04;101534.94;;;19.26;56.70
45285;BME280;31026;43.780;25.948;2024-02-15T10:26:34;101532.31;;;19.60;55.77
45285;BME280;31026;43.780;25.948;2024-02-15T10:29:06;101536.91;;;19.35;56.25
45285;BME280;31026;43.780;25.948;2024-02-15T10:31:39;101532.44;;;19.12;57.10
45285;BME280;31026;43.780;25.948;2024-02-15T10:34:08;101525.72;;;18.95;57.52
45285;BME280;31026;43.780;25.948;2024-02-15T10:36:36;101519.47;;;18.83;57.98
45285;BME280;31026;43.780;25.948;2024-02-15T10:39:14;101526.03;;;19.14;57.37
45285;BME280;31026;43.780;25.948;2024-02-15T10:41:45;101517.66;;;19.41;56.68
45285;BME280;31026;43.780;25.948;2024-02-15T10:44:15;101515.81;;;19.31;57.02
45285;BME280;31026;43.780;25.948;2024-02-15T10:46:46;101525.63;;;19.07;57.53
45285;BME280;31026;43.780;25.948;2024-02-15T10:49:17;101514.63;;;18.88;58.04
45285;BME280;31026;43.780;25.948;2024-02-15T10:51:48;101515.94;;;18.82;58.04
45285;BME280;31026;43.780;25.948;2024-02-15T10:54:22;101513.34;;;19.16;57.29
45285;BME280;31026;43.780;25.948;2024-02-15T10:56:53;101521.19;;;19.53;56.25
45285;BME280;31026;43.780;25.948;2024-02-15T10:59:28;101509.72;;;19.28;56.79
45285;BME280;31026;43.780;25.948;2024-02-15T11:02:00;101489.66;;;18.99;57.45
45285;BME280;31026;43.780;25.948;2024-02-15T11:04:30;101508.84;;;18.81;57.83
45285;BME280;31026;43.780;25.948;2024-02-15T11:06:59;101496.28;;;19.06;57.52
45285;BME280;31026;43.780;25.948;2024-02-15T11:09:34;101501.81;;;19.50;56.70
45285;BME280;31026;43.780;25.948;2024-02-15T11:12:02;101485.97;;;19.58;56.59
45285;BME280;31026;43.780;25.948;2024-02-15T11:14:31;101503.25;;;19.31;57.27
45285;BME280;31026;43.780;25.948;2024-02-15T11:17:00;101491.75;;;19.06;57.81
45285;BME280;31026;43.780;25.948;2024-02-15T11:19:41;101495.38;;;18.94;58.16
45285;BME280;31026;43.780;25.948;2024-02-15T11:22:07;101493.13;;;19.23;57.73
45285;BME280;31026;43.780;25.948;2024-02-15T11:24:45;101489.97;;;19.63;56.63
45285;BME280;31026;43.780;25.948;2024-02-15T11:27:23;101488.53;;;19.48;57.12
45285;BME280;31026;43.780;25.948;2024-02-15T11:29:52;101487.75;;;19.23;57.76
45285;BME280;31026;43.780;25.948;2024-02-15T11:32:37;101474.09;;;19.04;58.16
45285;BME280;31026;43.780;25.948;2024-02-15T11:35:06;101475.16;;;19.01;58.20
45285;BME280;31026;43.780;25.948;2024-02-15T11:46:14;101459.34;;;18.98;58.41
45285;BME280;31026;43.780;25.948;2024-02-15T11:48:43;101471.84;;;18.98;58.33
45285;BME280;31026;43.780;25.948;2024-02-15T11:51:24;101457.91;;;19.28;57.75
45285;BME280;31026;43.780;25.948;2024-02-15T11:54:01;101474.88;;;19.62;56.94
45285;BME280;31026;43.780;25.948;2024-02-15T11:56:31;101466.69;;;19.30;57.74
45285;BME280;31026;43.780;25.948;2024-02-15T11:59:02;101471.28;;;19.05;58.32
45285;BME280;31026;43.780;25.948;2024-02-15T12:01:34;101464.03;;;18.83;58.80
45285;BME280;31026;43.780;25.948;2024-02-15T12:04:15;101459.34;;;18.98;58.46
45285;BME280;31026;43.780;25.948;2024-02-15T12:06:56;101457.91;;;19.51;57.52
45285;BME280;31026;43.780;25.948;2024-02-15T12:09:37;101458.28;;;19.57;56.91
45285;BME280;31026;43.780;25.948;2024-02-15T12:12:18;101468.28;;;19.33;57.78
45285;BME280;31026;43.780;25.948;2024-02-15T12:14:59;101455.56;;;19.01;58.54
45285;BME280;31026;43.780;25.948;2024-02-15T12:17:42;101453.34;;;18.95;58.63
45285;BME280;31026;43.780;25.948;2024-02-15T12:20:23;101466.06;;;19.26;58.05
45285;BME280;31026;43.780;25.948;2024-02-15T12:22:52;101452.56;;;19.62;57.12
45285;BME280;31026;43.780;25.948;2024-02-15T12:25:20;101452.53;;;19.39;57.60
45285;BME280;31026;43.780;25.948;2024-02-15T12:27:52;101468.84;;;19.14;58.34
45285;BME280;31026;43.780;25.948;2024-02-15T12:30:21;101458.47;;;18.98;58.80
45285;BME280;31026;43.780;25.948;2024-02-15T12:32:53;101452.28;;;19.08;58.38
45285;BME280;31026;43.780;25.948;2024-02-15T12:35:37;101462.44;;;19.84;56.88
45285;BME280;31026;43.780;25.948;2024-02-15T12:38:07;101435.75;;;20.15;56.13
45285;BME280;31026;43.780;25.948;2024-02-15T12:40:38;101437.06;;;20.32;55.59
45285;BME280;31026;43.780;25.948;2024-02-15T12:43:06;101445.56;;;20.37;55.61
45285;BME280;31026;43.780;25.948;2024-02-15T12:45:35;101444.97;;;20.33;55.53
45285;BME280;31026;43.780;25.948;2024-02-15T12:48:07;101450.63;;;20.30;55.69
45285;BME280;31026;43.780;25.948;2024-02-15T12:50:36;101441.75;;;20.18;56.10
45285;BME280;31026;43.780;25.948;2024-02-15T12:53:05;101441.50;;;20.21;56.14
45285;BME280;31026;43.780;25.948;2024-02-15T12:55:34;101443.19;;;20.22;56.07
45285;BME280;31026;43.780;25.948;2024-02-15T12:58:03;101441.34;;;20.23;55.97
45285;BME280;31026;43.780;25.948;2024-02-15T13:00:34;101441.22;;;20.24;56.17
45285;BME280;31026;43.780;25.948;2024-02-15T13:03:07;101448.84;;;20.19;56.28
45285;BME280;31026;43.780;25.948;2024-02-15T13:05:36;101439.78;;;20.20;56.27